createdAt,value
2022-10-17T00:00:20.786Z,4.10
2022-10-17T00:03:09.218Z,4.60
2022-10-17T00:05:58.392Z,4.28
2022-10-17T00:08:47.071Z,4.38
2022-10-17T00:11:35.403Z,4.70
2022-10-17T00:14:25.223Z,4.10
2022-10-17T00:17:15.189Z,4.07
2022-10-17T00:20:03.952Z,4.40
2022-10-17T00:22:52.476Z,4.00
2022-10-17T00:25:41.494Z,4.32
2022-10-17T00:28:29.981Z,3.88
2022-10-17T00:31:21.191Z,4.13
2022-10-17T00:34:09.758Z,3.72
2022-10-17T00:36:58.208Z,4.20
2022-10-17T00:39:46.520Z,3.33
2022-10-17T00:42:35.040Z,3.83
2022-10-17T00:45:25.338Z,3.80
2022-10-17T00:48:18.882Z,3.78
2022-10-17T00:51:08.461Z,4.18
2022-10-17T00:53:57.399Z,3.53
2022-10-17T00:56:48.157Z,4.63
2022-10-17T00:59:39.040Z,5.57
2022-10-17T01:02:27.753Z,6.47
2022-10-17T01:05:19.392Z,5.65
2022-10-17T01:08:08.906Z,5.85
2022-10-17T01:11:06.806Z,6.10
2022-10-17T01:14:01.885Z,4.80
2022-10-17T01:16:58.524Z,4.97
2022-10-17T01:20:14.505Z,5.10
2022-10-17T01:23:19.252Z,4.75
2022-10-17T01:26:17.711Z,4.60
2022-10-17T01:29:32.981Z,4.72
2022-10-17T01:32:31.287Z,4.80
2022-10-17T01:35:26.820Z,4.70
2022-10-17T01:38:19.685Z,4.75
2022-10-17T01:41:14.437Z,4.78
2022-10-17T01:44:08.905Z,4.72
2022-10-17T01:47:04.503Z,4.93
2022-10-17T01:49:57.839Z,4.40
2022-10-17T01:52:49.745Z,4.88
2022-10-17T01:55:41.119Z,4.40
2022-10-17T01:58:33.080Z,4.43
2022-10-17T02:01:23.741Z,4.63
2022-10-17T02:04:12.969Z,4.32
2022-10-17T02:07:09.406Z,5.38
2022-10-17T02:09:57.731Z,5.22
2022-10-17T02:12:55.829Z,5.93
2022-10-17T02:15:58.807Z,5.43
2022-10-17T02:19:04.603Z,5.20
2022-10-17T02:22:04.876Z,5.30
2022-10-17T02:25:01.803Z,5.22
2022-10-17T02:27:55.947Z,5.43
2022-10-17T02:30:50.482Z,5.47
2022-10-17T02:33:43.873Z,6.50
2022-10-17T02:36:37.059Z,5.90
2022-10-17T02:39:27.095Z,5.95
2022-10-17T02:42:18.207Z,5.90
2022-10-17T02:45:07.978Z,5.75
2022-10-17T02:48:03.717Z,5.85
2022-10-17T02:50:59.053Z,5.60
2022-10-17T02:53:53.548Z,6.00
2022-10-17T02:56:47.569Z,6.00
2022-10-17T02:59:38.092Z,6.50
2022-10-17T03:02:26.901Z,5.68
2022-10-17T03:05:17.682Z,5.05
2022-10-17T03:08:06.259Z,6.07
2022-10-17T03:10:54.606Z,5.60
2022-10-17T03:13:42.938Z,5.78
2022-10-17T03:16:32.709Z,5.75
2022-10-17T03:19:21.051Z,5.95
2022-10-17T03:22:09.390Z,5.70
2022-10-17T03:24:57.739Z,6.10
2022-10-17T03:27:46.095Z,5.25
2022-10-17T03:30:34.900Z,5.63
2022-10-17T03:33:24.583Z,5.53
2022-10-17T03:36:14.995Z,5.90
2022-10-17T03:39:03.328Z,5.65
2022-10-17T03:41:51.679Z,6.20
2022-10-17T03:44:40.011Z,6.18
2022-10-17T03:47:29.910Z,6.57
2022-10-17T03:50:19.900Z,6.77
2022-10-17T03:53:08.228Z,7.45
2022-10-17T03:55:57.327Z,7.72
2022-10-17T03:58:46.146Z,7.25
2022-10-17T04:01:34.671Z,7.03
2022-10-17T04:04:23.138Z,6.63
2022-10-17T04:07:12.814Z,6.65
2022-10-17T04:10:01.104Z,6.82
2022-10-17T04:12:49.467Z,6.28
2022-10-17T04:15:37.765Z,6.50
2022-10-17T04:18:26.656Z,6.53
2022-10-17T04:21:15.219Z,6.75
2022-10-17T04:24:05.193Z,7.90
2022-10-17T04:26:54.747Z,6.80
2022-10-17T04:29:44.053Z,6.85
2022-10-17T04:32:33.234Z,7.43
2022-10-17T04:35:21.727Z,7.65
2022-10-17T04:38:10.062Z,6.57
2022-10-17T04:41:03.073Z,6.80
2022-10-17T04:43:51.618Z,6.68
2022-10-17T04:46:40.079Z,7.40
2022-10-17T04:49:28.641Z,7.25
2022-10-17T04:52:17.183Z,7.22
2022-10-17T04:55:06.210Z,7.78
2022-10-17T04:57:55.887Z,7.28
2022-10-17T05:00:44.346Z,7.60
2022-10-17T05:03:32.718Z,7.25
2022-10-17T05:06:22.603Z,7.10
2022-10-17T05:09:10.969Z,7.85
2022-10-17T05:11:59.299Z,7.70
2022-10-17T05:14:49.007Z,7.20
2022-10-17T05:17:37.340Z,7.45
2022-10-17T05:20:25.951Z,6.95
2022-10-17T05:23:14.299Z,7.00
2022-10-17T05:26:02.658Z,7.18
2022-10-17T05:28:52.493Z,7.05
2022-10-17T05:31:42.311Z,7.05
2022-10-17T05:34:30.641Z,7.43
2022-10-17T05:37:18.988Z,7.40
2022-10-17T05:40:08.459Z,7.53
2022-10-17T05:42:56.757Z,7.20
2022-10-17T05:45:45.086Z,7.28
2022-10-17T05:48:35.471Z,7.53
2022-10-17T05:51:23.857Z,7.50
2022-10-17T05:54:12.231Z,7.22
2022-10-17T05:57:00.569Z,7.63
2022-10-17T05:59:48.930Z,6.75
2022-10-17T06:02:37.238Z,7.10
2022-10-17T06:05:26.973Z,7.18
2022-10-17T06:08:15.315Z,7.43
2022-10-17T06:11:06.138Z,6.95
2022-10-17T06:13:57.641Z,7.05
2022-10-17T06:16:45.982Z,7.95
2022-10-17T06:19:34.294Z,8.30
2022-10-17T06:22:24.176Z,8.48
2022-10-17T06:25:12.769Z,7.53
2022-10-17T06:28:01.116Z,7.78
2022-10-17T06:30:49.426Z,7.57
2022-10-17T06:33:38.444Z,6.80
2022-10-17T06:36:26.809Z,6.03
2022-10-17T06:39:16.771Z,6.55
2022-10-17T06:42:05.957Z,6.05
2022-10-17T06:44:54.286Z,6.35
2022-10-17T06:47:42.624Z,6.20
2022-10-17T06:50:30.936Z,6.95
2022-10-17T06:53:19.233Z,6.45
2022-10-17T06:56:11.011Z,5.63
2022-10-17T06:58:59.357Z,5.95
2022-10-17T07:01:47.666Z,5.55
2022-10-17T07:04:36.017Z,7.30
2022-10-17T07:07:24.373Z,6.10
2022-10-17T07:10:12.977Z,5.70
2022-10-17T07:13:02.655Z,5.60
2022-10-17T07:15:51.051Z,5.80
2022-10-17T07:18:39.594Z,4.93
2022-10-17T07:21:27.934Z,4.90
2022-10-17T07:24:16.524Z,4.60
2022-10-17T07:27:05.595Z,4.65
2022-10-17T07:29:55.381Z,4.97
2022-10-17T07:32:44.537Z,5.25
2022-10-17T07:35:33.091Z,5.00
2022-10-17T07:38:21.407Z,4.50
2022-10-17T07:41:11.985Z,4.65
2022-10-17T07:44:00.322Z,4.85
2022-10-17T07:46:49.983Z,4.50
2022-10-17T07:49:42.430Z,4.18
2022-10-17T07:52:31.104Z,4.20
2022-10-17T07:55:19.675Z,3.88
2022-10-17T07:58:08.344Z,3.83
2022-10-17T08:00:56.805Z,3.63
2022-10-17T08:03:48.597Z,3.47
2022-10-17T08:06:36.915Z,3.22
2022-10-17T08:09:25.263Z,2.53
2022-10-17T08:12:14.832Z,2.72
2022-10-17T08:15:03.334Z,3.22
2022-10-17T08:17:51.954Z,2.58
2022-10-17T08:20:41.651Z,2.60
2022-10-17T08:23:30.212Z,2.67
2022-10-17T08:26:20.051Z,2.75
2022-10-17T08:29:14.363Z,2.75
2022-10-17T08:32:05.429Z,2.30
2022-10-17T08:34:55.700Z,3.47
2022-10-17T08:37:45.386Z,2.83
2022-10-17T08:40:35.434Z,2.40
2022-10-17T08:43:35.655Z,1.98
2022-10-17T08:46:24.372Z,1.92
2022-10-17T08:49:17.633Z,2.22
2022-10-17T08:52:12.604Z,2.00
2022-10-17T08:55:02.491Z,2.13
2022-10-17T08:57:50.807Z,2.00
2022-10-17T09:00:40.836Z,2.10
2022-10-17T09:03:41.442Z,2.15
2022-10-17T09:06:34.995Z,2.08
2022-10-17T09:09:36.131Z,1.80
2022-10-17T09:12:32.573Z,1.73
2022-10-17T09:15:49.779Z,1.63
2022-10-17T09:18:41.543Z,1.65
2022-10-17T09:21:40.623Z,1.60
2022-10-17T09:24:43.923Z,1.80
2022-10-17T09:27:37.780Z,1.80
2022-10-17T09:30:45.958Z,1.55
2022-10-17T09:33:53.396Z,1.98
2022-10-17T09:36:42.536Z,1.70
2022-10-17T09:39:32.112Z,1.88
2022-10-17T09:42:25.005Z,1.98
2022-10-17T09:45:24.716Z,1.75
2022-10-17T09:48:21.439Z,1.92
2022-10-17T09:51:21.850Z,2.00
2022-10-17T09:54:33.449Z,1.48
2022-10-17T09:57:23.059Z,1.70
2022-10-17T10:00:23.954Z,1.70
2022-10-17T10:03:19.094Z,1.85
2022-10-17T10:06:13.858Z,1.63
2022-10-17T10:09:03.453Z,1.95
2022-10-17T10:11:54.072Z,1.92
2022-10-17T10:17:41.692Z,1.85
2022-10-17T10:20:35.001Z,2.03
2022-10-17T10:23:24.360Z,1.92
2022-10-17T10:26:25.814Z,1.75
2022-10-17T10:29:24.696Z,1.92
2022-10-17T10:32:19.179Z,1.85
2022-10-17T10:35:20.001Z,2.10
2022-10-17T10:38:14.789Z,1.63
2022-10-17T10:41:06.020Z,1.75
2022-10-17T10:43:56.265Z,1.50
2022-10-17T10:46:44.766Z,1.80
2022-10-17T10:49:33.801Z,1.65
2022-10-17T10:52:33.840Z,2.33
2022-10-17T10:55:28.319Z,1.70
2022-10-17T10:58:28.534Z,1.70
2022-10-17T11:01:23.336Z,1.30
2022-10-17T11:04:32.342Z,1.30
2022-10-17T11:07:24.374Z,1.80
2022-10-17T11:10:19.238Z,1.63
2022-10-17T11:13:14.877Z,2.15
2022-10-17T11:16:13.230Z,1.55
2022-10-17T11:19:09.390Z,1.52
2022-10-17T11:22:11.759Z,1.63
2022-10-17T11:25:04.948Z,1.88
2022-10-17T11:27:54.763Z,2.47
2022-10-17T11:30:49.081Z,1.70
2022-10-17T11:33:46.689Z,2.30
2022-10-17T11:36:40.620Z,1.90
2022-10-17T11:39:35.178Z,1.80
2022-10-17T11:42:28.681Z,1.58
2022-10-17T11:45:22.916Z,1.80
2022-10-17T11:48:20.990Z,1.65
2022-10-17T11:54:26.299Z,1.92
2022-10-17T11:57:38.685Z,1.80
2022-10-17T12:00:41.672Z,2.00
2022-10-17T12:03:47.426Z,1.73
2022-10-17T12:06:48.369Z,1.98
2022-10-17T12:09:43.292Z,2.22
2022-10-17T12:12:33.620Z,1.90
2022-10-17T12:15:33.836Z,1.95
2022-10-17T12:18:27.334Z,2.22
2022-10-17T12:21:16.011Z,2.30
2022-10-17T12:24:04.470Z,1.90
2022-10-17T12:26:56.333Z,2.53
2022-10-17T12:29:45.496Z,1.80
2022-10-17T12:33:00.396Z,1.50
2022-10-17T12:35:44.172Z,1.60
2022-10-17T12:38:32.544Z,1.70
2022-10-17T12:41:54.946Z,1.73
2022-10-17T12:44:44.828Z,1.40
2022-10-17T12:47:40.124Z,1.48
2022-10-17T12:51:30.765Z,1.63
2022-10-17T12:54:15.043Z,1.70
2022-10-17T12:57:03.413Z,1.55
2022-10-17T12:59:56.706Z,1.40
2022-10-17T13:02:49.361Z,1.58
2022-10-17T13:05:41.038Z,1.30
2022-10-17T13:08:32.816Z,1.70
2022-10-17T13:11:24.708Z,1.65
2022-10-17T13:14:15.219Z,1.38
2022-10-17T13:19:55.917Z,1.58
2022-10-17T13:22:46.647Z,1.58
2022-10-17T13:25:38.833Z,1.20
2022-10-17T13:28:29.149Z,1.05
2022-10-17T13:31:30.903Z,1.77
2022-10-17T13:34:21.550Z,1.50
2022-10-17T13:40:11.408Z,1.80
2022-10-17T13:43:11.333Z,1.60
2022-10-17T13:46:25.630Z,1.30
2022-10-17T13:49:28.267Z,1.30
2022-10-17T13:52:19.984Z,1.42
2022-10-17T13:55:11.761Z,1.33
2022-10-17T13:58:11.381Z,1.20
2022-10-17T14:00:59.989Z,1.48
2022-10-17T14:03:57.084Z,2.17
2022-10-17T14:06:52.215Z,1.40
2022-10-17T14:09:42.346Z,1.08
2022-10-17T14:12:30.711Z,1.40
2022-10-17T14:15:19.737Z,1.48
2022-10-17T14:18:11.765Z,1.50
2022-10-17T14:24:27.742Z,1.15
2022-10-17T14:27:30.464Z,1.40
2022-10-17T14:30:55.266Z,1.40
2022-10-17T14:33:49.778Z,1.50
2022-10-17T14:36:42.102Z,1.10
2022-10-17T14:39:30.887Z,1.20
2022-10-17T14:42:21.426Z,1.58
2022-10-17T14:45:20.122Z,1.58
2022-10-17T14:48:15.498Z,2.17
2022-10-17T14:51:11.361Z,1.60
2022-10-17T14:54:05.896Z,2.08
2022-10-17T14:56:55.998Z,1.40
2022-10-17T14:59:59.657Z,1.27
2022-10-17T15:02:50.632Z,1.50
2022-10-17T15:05:39.030Z,1.52
2022-10-17T15:08:27.425Z,1.27
2022-10-17T15:11:15.846Z,1.30
2022-10-17T15:14:04.180Z,1.20
2022-10-17T15:16:52.536Z,1.60
2022-10-17T15:19:42.446Z,1.25
2022-10-17T15:22:31.613Z,1.40
2022-10-17T15:25:20.292Z,1.50
2022-10-17T15:28:08.979Z,1.20
2022-10-17T15:30:57.300Z,2.08
2022-10-17T15:33:46.551Z,1.30
2022-10-17T15:36:41.047Z,1.70
2022-10-17T15:39:29.392Z,1.80
2022-10-17T15:42:17.730Z,1.30
2022-10-17T15:48:05.238Z,1.60
2022-10-17T15:50:53.585Z,1.70
2022-10-17T15:53:43.357Z,1.52
2022-10-17T15:56:36.229Z,1.70
2022-10-17T15:59:33.026Z,1.30
2022-10-17T16:02:23.428Z,1.35
2022-10-17T16:05:16.640Z,1.58
2022-10-17T16:08:05.590Z,1.40
2022-10-17T16:10:56.587Z,1.70
2022-10-17T16:13:48.663Z,1.17
2022-10-17T16:16:37.284Z,1.45
2022-10-17T16:19:27.230Z,1.55
2022-10-17T16:22:22.163Z,1.42
2022-10-17T16:25:20.128Z,1.70
2022-10-17T16:28:11.918Z,1.58
2022-10-17T16:31:00.347Z,1.52
2022-10-17T16:33:49.308Z,2.10
2022-10-17T16:36:37.707Z,1.48
2022-10-17T16:42:19.505Z,1.65
2022-10-17T16:45:11.379Z,1.63
2022-10-17T16:47:59.791Z,1.63
2022-10-17T16:50:48.113Z,1.60
2022-10-17T16:53:39.933Z,1.63
2022-10-17T16:56:29.855Z,1.95
2022-10-17T16:59:18.201Z,2.28
2022-10-17T17:02:08.118Z,2.63
2022-10-17T17:04:56.475Z,2.47
2022-10-17T17:07:44.810Z,3.00
2022-10-17T17:10:33.120Z,2.42
2022-10-17T17:13:21.482Z,2.47
2022-10-17T17:16:12.020Z,2.00
2022-10-17T17:19:04.539Z,3.38
2022-10-17T17:21:52.874Z,2.40
2022-10-17T17:24:41.247Z,2.40
2022-10-17T17:27:30.154Z,1.73
2022-10-17T17:30:19.005Z,1.95
2022-10-17T17:33:07.321Z,2.08
2022-10-17T17:35:58.310Z,2.00
2022-10-17T17:38:47.054Z,2.00
2022-10-17T17:41:35.844Z,1.85
2022-10-17T17:44:24.218Z,1.85
2022-10-17T17:47:12.531Z,1.63
2022-10-17T17:50:00.899Z,2.05
2022-10-17T17:52:51.158Z,1.77
2022-10-17T17:55:39.694Z,1.98
2022-10-17T17:58:28.018Z,1.70
2022-10-17T18:01:21.462Z,1.90
2022-10-17T18:04:10.354Z,2.00
2022-10-17T18:06:58.661Z,2.00
2022-10-17T18:09:49.292Z,2.10
2022-10-17T18:12:37.687Z,2.20
2022-10-17T18:15:26.088Z,2.20
2022-10-17T18:18:14.624Z,2.60
2022-10-17T18:21:03.017Z,2.70
2022-10-17T18:23:51.867Z,2.88
2022-10-17T18:26:42.062Z,2.75
2022-10-17T18:29:31.146Z,3.00
2022-10-17T18:32:20.334Z,2.90
2022-10-17T18:35:09.136Z,2.75
2022-10-17T18:37:57.478Z,3.20
2022-10-17T18:40:48.567Z,3.47
2022-10-17T18:43:42.745Z,3.28
2022-10-17T18:46:35.879Z,3.30
2022-10-17T18:49:25.073Z,2.85
2022-10-17T18:52:13.471Z,2.33
2022-10-17T18:55:01.797Z,9.38
2022-10-17T18:57:50.256Z,14.07
2022-10-17T19:00:40.186Z,12.63
2022-10-17T19:03:28.526Z,9.43
2022-10-17T19:06:18.880Z,7.95
2022-10-17T19:09:09.550Z,8.63
2022-10-17T19:14:46.505Z,9.43
2022-10-17T19:17:36.566Z,8.93
2022-10-17T19:20:24.890Z,7.82
2022-10-17T19:23:13.329Z,5.43
2022-10-17T19:26:04.040Z,3.97
2022-10-17T19:31:42.744Z,2.75
2022-10-17T19:34:32.490Z,3.50
2022-10-17T19:37:20.945Z,10.05
2022-10-17T19:40:10.416Z,9.77
2022-10-17T19:42:58.751Z,6.53
2022-10-17T19:45:55.967Z,8.30
2022-10-17T19:48:44.888Z,11.95
2022-10-17T19:51:34.915Z,10.30
2022-10-17T19:54:23.536Z,8.57
2022-10-17T19:57:11.898Z,8.13
2022-10-17T20:00:00.259Z,7.97
2022-10-17T20:02:48.591Z,8.20
2022-10-17T20:05:39.202Z,7.90
2022-10-17T20:08:28.990Z,7.82
2022-10-17T20:11:19.788Z,7.75
2022-10-17T20:14:08.506Z,5.88
2022-10-17T20:16:56.894Z,5.13
2022-10-17T20:19:45.288Z,4.68
2022-10-17T20:22:33.728Z,5.38
2022-10-17T20:25:23.673Z,4.38
2022-10-17T20:28:12.379Z,3.75
2022-10-17T20:31:00.945Z,4.55
2022-10-17T20:33:49.293Z,3.80
2022-10-17T20:36:37.801Z,4.70
2022-10-17T20:39:26.305Z,4.18
2022-10-17T20:42:16.006Z,3.10
2022-10-17T20:45:04.681Z,3.15
2022-10-17T20:47:53.974Z,2.70
2022-10-17T20:50:43.543Z,2.95
2022-10-17T20:53:36.882Z,6.82
2022-10-17T20:56:27.976Z,4.45
2022-10-17T20:59:19.013Z,3.55
2022-10-17T21:02:07.884Z,4.07
2022-10-17T21:04:56.217Z,3.95
2022-10-17T21:07:44.661Z,3.80
2022-10-17T21:10:35.428Z,3.20
2022-10-17T21:13:24.047Z,3.35
2022-10-17T21:16:16.162Z,3.38
2022-10-17T21:19:05.870Z,3.60
2022-10-17T21:21:54.243Z,3.60
2022-10-17T21:24:42.610Z,4.10
2022-10-17T21:27:30.932Z,3.58
2022-10-17T21:30:19.878Z,4.07
2022-10-17T21:33:09.683Z,3.88
2022-10-17T21:35:58.298Z,4.10
2022-10-17T21:38:47.906Z,3.40
2022-10-17T21:41:36.240Z,3.83
2022-10-17T21:44:26.669Z,3.50
2022-10-17T21:47:14.995Z,3.45
2022-10-17T21:50:05.048Z,3.60
2022-10-17T21:52:53.514Z,4.25
2022-10-17T21:55:41.835Z,4.15
2022-10-17T21:58:30.409Z,4.07
2022-10-17T22:01:21.604Z,5.00
2022-10-17T22:04:12.650Z,5.00
2022-10-17T22:07:02.323Z,4.47
2022-10-17T22:09:50.645Z,4.20
2022-10-17T22:12:38.955Z,4.50
2022-10-17T22:15:27.337Z,4.47
2022-10-17T22:18:16.103Z,4.50
2022-10-17T22:21:05.361Z,4.60
2022-10-17T22:23:58.627Z,5.00
2022-10-17T22:26:47.376Z,4.75
2022-10-17T22:29:35.800Z,4.72
2022-10-17T22:32:24.146Z,5.35
2022-10-17T22:35:12.449Z,5.68
2022-10-17T22:38:00.796Z,5.57
2022-10-17T22:40:50.489Z,5.68
2022-10-17T22:43:38.814Z,5.65
2022-10-17T22:46:27.288Z,5.40
2022-10-17T22:49:15.654Z,5.82
2022-10-17T22:52:04.245Z,6.30
2022-10-17T22:54:52.572Z,5.68
2022-10-17T22:57:42.326Z,6.43
2022-10-17T23:00:30.852Z,6.30
2022-10-17T23:03:19.805Z,6.32
2022-10-17T23:06:08.181Z,6.10
2022-10-17T23:08:56.492Z,6.40
2022-10-17T23:11:44.872Z,7.10
2022-10-17T23:14:37.418Z,6.25
2022-10-17T23:17:25.838Z,7.07
2022-10-17T23:20:14.183Z,6.78
2022-10-17T23:23:02.603Z,7.75
2022-10-17T23:25:51.890Z,6.78
2022-10-17T23:28:41.099Z,7.05
2022-10-17T23:31:30.856Z,7.28
2022-10-17T23:34:19.179Z,7.47
2022-10-17T23:37:07.546Z,7.20
2022-10-17T23:39:55.851Z,8.15
2022-10-17T23:42:45.071Z,7.38
2022-10-17T23:45:36.230Z,8.38
2022-10-17T23:48:26.696Z,7.80
2022-10-17T23:51:15.160Z,9.25
2022-10-17T23:54:04.688Z,8.95
2022-10-17T23:56:53.018Z,9.45
2022-10-17T23:59:41.371Z,9.57
